Time;durP1;ratioP1;P1;durP2;ratioP2;P2;SDS_P1;SDS_P2;PMS_P1;PMS_P2;Temp;Humidity;BMP_temperature;BMP_pressure;BME280_temperature;BME280_humidity;BME280_pressure;Samples;Min_cycle;Max_cycle;Signal;HPM_P1;HPM_P2
2023/04/20 00:00:36;;;;;;;5.65;2.50;;;6.90;99.90;;;;;;5073528;28;20487;-24
2023/04/20 00:03:02;;;;;;;8.18;2.13;;;6.90;99.90;;;;;;5073480;28;20048;-25
2023/04/20 00:05:30;;;;;;;4.13;1.85;;;6.90;99.90;;;;;;5073482;28;20052;-24
2023/04/20 00:07:57;;;;;;;5.43;2.22;;;6.90;99.90;;;;;;5022824;28;20040;-24
2023/04/20 00:10:23;;;;;;;10.65;2.10;;;7.00;99.90;;;;;;5055775;28;20044;-24
2023/04/20 00:12:49;;;;;;;6.20;1.92;;;7.00;99.90;;;;;;5073377;28;20591;-25
2023/04/20 00:15:15;;;;;;;5.13;2.15;;;7.00;99.90;;;;;;5055713;28;20044;-24
2023/04/20 00:17:40;;;;;;;8.50;1.92;;;6.90;99.90;;;;;;5073053;28;20037;-24
2023/04/20 00:20:08;;;;;;;5.78;1.60;;;7.00;99.90;;;;;;5073335;28;20105;-24
2023/04/20 00:22:34;;;;;;;5.65;1.50;;;6.90;99.90;;;;;;5073592;28;20049;-24
2023/04/20 00:25:00;;;;;;;6.28;1.58;;;7.00;99.90;;;;;;5073248;28;20053;-24
2023/04/20 00:27:27;;;;;;;5.25;1.70;;;7.00;99.90;;;;;;5055361;28;20045;-24
2023/04/20 00:29:52;;;;;;;7.10;1.83;;;7.10;99.90;;;;;;5073288;28;20048;-24
2023/04/20 00:32:18;;;;;;;2.78;1.30;;;7.10;99.90;;;;;;5073546;28;20048;-24
2023/04/20 00:34:44;;;;;;;2.42;1.10;;;7.00;99.90;;;;;;5055396;28;20044;-24
2023/04/20 00:37:10;;;;;;;5.07;1.50;;;7.20;99.90;;;;;;5055509;28;20156;-25
2023/04/20 00:39:36;;;;;;;3.90;1.50;;;7.20;99.90;;;;;;5055279;28;20047;-24
2023/04/20 00:42:08;;;;;;;2.97;1.48;;;7.20;99.90;;;;;;5073532;28;20140;-24
2023/04/20 00:44:34;;;;;;;7.38;1.92;;;7.20;99.90;;;;;;5023136;28;20056;-24
2023/04/20 00:47:00;;;;;;;4.70;1.52;;;7.20;99.90;;;;;;5073607;28;20398;-24
2023/04/20 00:49:29;;;;;;;1.58;0.95;;;7.20;99.90;;;;;;5072634;28;20426;-24
2023/04/20 00:51:56;;;;;;;5.68;1.20;;;7.10;99.90;;;;;;5072993;28;20045;-24
2023/04/20 00:54:22;;;;;;;4.57;1.40;;;7.10;99.90;;;;;;5055278;28;20037;-24
2023/04/20 00:56:49;;;;;;;5.63;1.45;;;7.20;99.90;;;;;;5073793;28;20051;-24
2023/04/20 00:59:15;;;;;;;4.95;1.10;;;7.20;99.90;;;;;;5039510;28;20374;-24
2023/04/20 01:01:41;;;;;;;5.40;1.30;;;7.10;99.90;;;;;;5073238;28;20114;-24
2023/04/20 01:04:08;;;;;;;5.35;1.60;;;7.20;99.90;;;;;;5055788;28;20083;-24
2023/04/20 01:06:34;;;;;;;8.05;1.83;;;7.10;99.90;;;;;;5073476;28;20052;-24
2023/04/20 01:09:01;;;;;;;4.22;1.60;;;7.00;99.90;;;;;;5056297;28;20406;-24
2023/04/20 01:11:26;;;;;;;4.70;1.48;;;6.90;99.90;;;;;;5025748;28;20051;-24
2023/04/20 01:13:52;;;;;;;6.40;1.98;;;6.90;99.90;;;;;;5076132;28;20386;-24
2023/04/20 01:16:18;;;;;;;4.63;1.48;;;6.90;1.00;;;;;;5059266;28;20056;-24
2023/04/20 01:18:46;;;;;;;3.53;1.73;;;6.90;99.90;;;;;;5042054;28;20062;-24
2023/04/20 01:21:13;;;;;;;6.85;1.65;;;6.90;1.00;;;;;;5076211;28;20048;-23
2023/04/20 01:23:39;;;;;;;11.45;2.17;;;6.80;1.00;;;;;;5076208;28;20040;-23
2023/04/20 01:26:12;;;;;;;9.68;1.85;;;6.80;1.00;;;;;;5076216;28;20044;-23
2023/04/20 01:28:38;;;;;;;5.25;1.40;;;6.90;1.00;;;;;;5058192;28;20067;-23
2023/04/20 01:31:06;;;;;;;6.93;2.22;;;6.90;1.00;;;;;;5076100;28;20478;-23
2023/04/20 01:33:33;;;;;;;6.65;1.25;;;6.90;1.00;;;;;;5076579;28;20045;-23
2023/04/20 01:35:58;;;;;;;7.03;1.48;;;7.00;1.00;;;;;;5075981;28;20051;-23
2023/04/20 01:38:25;;;;;;;5.45;1.40;;;7.00;1.00;;;;;;5058276;28;20044;-23
2023/04/20 01:40:52;;;;;;;5.88;1.80;;;7.00;1.00;;;;;;5075895;28;20142;-23
2023/04/20 01:43:18;;;;;;;7.63;1.50;;;7.00;1.00;;;;;;5077075;28;20071;-23
2023/04/20 01:45:44;;;;;;;2.83;1.40;;;7.00;1.00;;;;;;5057907;28;20037;-23
2023/04/20 01:48:10;;;;;;;7.07;1.40;;;6.90;1.00;;;;;;5075746;28;20052;-23
2023/04/20 01:50:35;;;;;;;9.38;1.58;;;6.90;29.80;;;;;;5058092;28;20082;-23
2023/04/20 01:53:01;;;;;;;3.53;1.50;;;6.80;85.00;;;;;;5075679;28;20063;-23
2023/04/20 01:55:27;;;;;;;5.40;1.60;;;6.70;70.20;;;;;;5041531;28;20044;-23
2023/04/20 01:57:53;;;;;;;9.20;1.60;;;6.60;99.90;;;;;;5041221;28;20067;-23
2023/04/20 02:00:18;;;;;;;3.80;1.83;;;6.60;99.90;;;;;;5075510;28;20098;-23
2023/04/20 02:02:44;;;;;;;5.43;1.52;;;6.50;99.90;;;;;;5075465;28;20101;-23
2023/04/20 02:05:10;;;;;;;7.47;1.88;;;6.50;99.90;;;;;;5057601;28;20048;-23
2023/04/20 02:07:36;;;;;;;3.58;1.35;;;6.40;99.90;;;;;;5075311;28;20045;-23
2023/04/20 02:10:03;;;;;;;12.18;1.80;;;6.40;99.90;;;;;;5075875;28;20123;-23
2023/04/20 02:12:29;;;;;;;6.05;1.85;;;6.40;99.90;;;;;;5076127;28;20052;-23
2023/04/20 02:14:55;;;;;;;5.25;1.70;;;6.50;99.90;;;;;;5057648;28;20471;-23
2023/04/20 02:17:20;;;;;;;7.57;1.70;;;6.50;99.90;;;;;;5040778;28;20048;-23
2023/04/20 02:19:46;;;;;;;9.57;1.75;;;6.50;99.90;;;;;;5074767;28;20041;-23
2023/04/20 02:22:12;;;;;;;3.83;1.50;;;6.50;99.90;;;;;;5074749;28;20051;-23
2023/04/20 02:24:38;;;;;;;5.80;1.55;;;6.50;99.90;;;;;;5074752;28;20048;-23
2023/04/20 02:27:04;;;;;;;7.35;2.00;;;6.50;1.00;;;;;;5074984;28;20048;-23
2023/04/20 02:29:30;;;;;;;6.18;1.75;;;6.60;1.00;;;;;;5056989;28;20552;-23
2023/04/20 02:31:56;;;;;;;5.03;1.80;;;6.60;1.00;;;;;;5075704;28;20083;-23
2023/04/20 02:34:23;;;;;;;8.45;2.10;;;6.60;1.00;;;;;;5040519;28;20414;-23
2023/04/20 02:36:49;;;;;;;5.30;1.98;;;6.60;1.00;;;;;;5075328;28;20047;-23
2023/04/20 02:39:15;;;;;;;7.28;1.83;;;6.70;1.00;;;;;;5057022;28;20048;-23
2023/04/20 02:41:40;;;;;;;11.05;2.95;;;6.80;1.00;;;;;;5040161;28;20060;-23
2023/04/20 02:44:06;;;;;;;8.30;2.17;;;6.80;1.00;;;;;;5074675;28;20058;-23
2023/04/20 02:46:32;;;;;;;6.78;1.98;;;6.80;1.00;;;;;;5040442;28;20079;-23
2023/04/20 02:48:57;;;;;;;7.30;1.95;;;6.80;1.00;;;;;;5040610;28;20094;-23
2023/04/20 02:51:23;;;;;;;9.15;2.22;;;6.80;1.00;;;;;;5039757;28;20117;-23
2023/04/20 02:53:49;;;;;;;6.80;1.80;;;6.80;1.00;;;;;;5056685;28;20055;-23
2023/04/20 02:56:14;;;;;;;6.90;2.03;;;6.90;1.00;;;;;;5074675;28;20049;-23
2023/04/20 02:58:40;;;;;;;8.55;2.10;;;7.00;1.00;;;;;;5074360;28;20535;-23
2023/04/20 03:01:06;;;;;;;9.23;2.40;;;7.10;1.00;;;;;;5074267;28;20146;-23
2023/04/20 03:03:32;;;;;;;4.43;1.85;;;7.10;99.90;;;;;;5039867;28;20051;-23
2023/04/20 03:05:57;;;;;;;11.82;2.35;;;7.20;99.90;;;;;;5057137;28;20076;-23
2023/04/20 03:08:23;;;;;;;8.77;2.03;;;7.20;99.90;;;;;;5074089;28;20475;-23
2023/04/20 03:10:49;;;;;;;10.05;2.40;;;7.30;99.90;;;;;;5074666;28;20430;-24
2023/04/20 03:13:15;;;;;;;9.30;2.20;;;7.30;99.90;;;;;;5056358;28;20049;-23
2023/04/20 03:15:42;;;;;;;5.10;1.75;;;7.20;99.90;;;;;;5074298;28;20052;-23
2023/04/20 03:18:08;;;;;;;5.30;1.67;;;7.30;99.90;;;;;;5056366;28;20059;-23
2023/04/20 03:20:34;;;;;;;6.30;1.85;;;7.40;99.90;;;;;;5073961;28;20044;-23
2023/04/20 03:23:00;;;;;;;7.47;2.05;;;7.40;99.90;;;;;;5073951;28;20071;-23
2023/04/20 03:25:26;;;;;;;12.52;1.85;;;7.40;99.90;;;;;;5073939;28;20479;-23
2023/04/20 03:27:52;;;;;;;5.40;1.65;;;7.40;99.90;;;;;;5073857;28;20040;-23
2023/04/20 03:30:17;;;;;;;7.45;1.95;;;7.40;57.70;;;;;;5073794;28;20044;-23
2023/04/20 03:32:44;;;;;;;5.10;2.08;;;7.50;1.00;;;;;;5073571;28;20441;-23
2023/04/20 03:35:10;;;;;;;6.05;1.92;;;7.60;1.00;;;;;;5073839;28;20048;-23
2023/04/20 03:37:38;;;;;;;6.88;2.42;;;7.60;1.00;;;;;;5073776;28;20102;-23
2023/04/20 03:40:06;;;;;;;7.35;2.15;;;7.70;1.00;;;;;;5073989;28;20091;-23
2023/04/20 03:42:31;;;;;;;7.05;1.85;;;7.80;99.90;;;;;;5055971;28;20056;-23
2023/04/20 03:44:57;;;;;;;6.57;2.42;;;7.80;99.90;;;;;;5055806;28;20482;-24
2023/04/20 03:47:23;;;;;;;6.15;1.55;;;7.90;14.60;;;;;;5073380;28;20124;-23
2023/04/20 03:49:49;;;;;;;3.85;1.38;;;8.00;99.90;;;;;;5055760;28;20047;-23
2023/04/20 03:52:14;;;;;;;5.43;1.67;;;8.00;99.90;;;;;;5073555;28;20052;-23
2023/04/20 03:54:40;;;;;;;4.95;1.60;;;8.10;38.20;;;;;;5074151;28;20056;-23
2023/04/20 03:57:06;;;;;;;3.40;1.05;;;8.20;35.80;;;;;;5074367;28;20134;-23
2023/04/20 03:59:31;;;;;;;6.05;1.52;;;8.20;1.00;;;;;;5055681;28;20041;-23
2023/04/20 04:01:58;;;;;;;4.40;1.10;;;8.20;1.00;;;;;;5056702;28;20183;-23
2023/04/20 04:04:24;;;;;;;4.80;1.58;;;8.10;99.90;;;;;;5073530;28;20094;-23
2023/04/20 04:06:50;;;;;;;9.75;2.58;;;8.10;99.90;;;;;;5073445;28;20052;-23
2023/04/20 04:09:16;;;;;;;3.72;1.35;;;8.10;99.90;;;;;;5073374;28;20041;-23
2023/04/20 04:11:42;;;;;;;9.23;1.50;;;8.10;99.90;;;;;;5022267;28;20461;-23
2023/04/20 04:14:07;;;;;;;7.32;2.58;;;8.00;99.90;;;;;;5055536;28;20135;-23
2023/04/20 04:16:33;;;;;;;7.45;1.80;;;8.10;99.90;;;;;;5073628;28;20049;-23
2023/04/20 04:18:59;;;;;;;6.95;1.20;;;8.10;99.90;;;;;;5073356;28;20091;-23
2023/04/20 04:21:26;;;;;;;6.05;1.85;;;8.10;99.90;;;;;;5055517;28;20398;-23
2023/04/20 04:23:52;;;;;;;4.90;1.30;;;8.10;99.90;;;;;;5055637;28;20471;-23
2023/04/20 04:26:20;;;;;;;5.32;1.23;;;8.00;99.90;;;;;;5022361;28;20044;-23
2023/04/20 04:28:46;;;;;;;3.97;1.10;;;8.10;1.00;;;;;;5073025;28;20498;-23
2023/04/20 04:31:11;;;;;;;5.10;1.92;;;8.10;1.00;;;;;;5055647;28;20098;-23
2023/04/20 04:33:37;;;;;;;3.05;1.33;;;8.10;99.90;;;;;;5073201;28;20041;-23
2023/04/20 04:36:03;;;;;;;9.05;1.88;;;8.10;99.90;;;;;;5073207;28;20052;-23
2023/04/20 04:38:32;;;;;;;5.78;1.48;;;8.10;99.90;;;;;;5073134;28;20051;-23
2023/04/20 04:40:58;;;;;;;4.53;1.13;;;8.10;99.90;;;;;;5056281;28;20098;-23
2023/04/20 04:43:24;;;;;;;5.32;1.13;;;8.10;99.90;;;;;;5055689;28;20064;-23
2023/04/20 04:45:50;;;;;;;4.53;1.13;;;8.00;99.90;;;;;;5042784;28;20049;-24
2023/04/20 04:48:15;;;;;;;5.28;1.33;;;8.00;99.90;;;;;;5076739;28;20074;-24
2023/04/20 04:50:41;;;;;;;8.18;1.48;;;8.00;99.90;;;;;;5059032;28;20474;-23
2023/04/20 04:53:07;;;;;;;5.85;1.42;;;8.10;99.90;;;;;;5059028;28;20083;-23
2023/04/20 04:55:33;;;;;;;2.25;1.00;;;8.10;99.90;;;;;;5058932;28;20055;-24
2023/04/20 04:57:58;;;;;;;3.70;1.27;;;8.10;99.90;;;;;;5076689;28;20052;-24
2023/04/20 05:00:25;;;;;;;7.97;1.48;;;8.10;99.90;;;;;;5077154;28;20417;-23
2023/04/20 05:02:54;;;;;;;5.70;1.30;;;8.10;51.90;;;;;;5077116;28;20406;-23
2023/04/20 05:05:20;;;;;;;3.50;1.20;;;8.10;79.00;;;;;;5076582;28;20048;-23
2023/04/20 05:07:46;;;;;;;4.10;1.42;;;8.10;1.00;;;;;;5076431;28;20048;-24
2023/04/20 05:10:12;;;;;;;3.15;1.45;;;8.00;1.00;;;;;;5076484;28;20049;-23
2023/04/20 05:12:38;;;;;;;5.45;1.80;;;8.10;1.00;;;;;;5076968;28;20136;-24
2023/04/20 05:15:05;;;;;;;4.22;1.00;;;8.10;1.00;;;;;;5058729;28;20052;-23
2023/04/20 05:17:31;;;;;;;4.15;1.90;;;8.10;1.00;;;;;;5058418;28;20052;-23
2023/04/20 05:19:56;;;;;;;8.07;1.60;;;8.00;1.00;;;;;;5058598;28;20380;-23
2023/04/20 05:22:22;;;;;;;3.90;0.95;;;8.10;99.90;;;;;;5076257;28;20037;-23
2023/04/20 05:24:48;;;;;;;3.88;1.35;;;8.10;99.90;;;;;;5058861;28;20106;-23
2023/04/20 05:27:13;;;;;;;7.93;1.67;;;8.00;1.00;;;;;;5042719;28;20083;-23
2023/04/20 05:29:39;;;;;;;4.85;1.20;;;8.00;1.00;;;;;;5041583;28;20052;-23
2023/04/20 05:32:05;;;;;;;5.00;1.27;;;8.00;1.00;;;;;;5075774;28;20048;-23
2023/04/20 05:34:31;;;;;;;3.70;1.13;;;7.90;99.90;;;;;;5058273;28;20466;-23
2023/04/20 05:36:58;;;;;;;6.57;1.80;;;7.80;99.90;;;;;;5075938;28;20045;-23
2023/04/20 05:39:23;;;;;;;5.57;1.50;;;7.60;1.00;;;;;;5058480;28;20390;-23
2023/04/20 05:41:49;;;;;;;3.53;1.33;;;7.60;1.00;;;;;;5075670;28;20063;-23
2023/04/20 05:44:15;;;;;;;7.30;1.67;;;7.60;1.00;;;;;;5076652;28;20052;-23
2023/04/20 05:46:41;;;;;;;6.28;1.45;;;7.70;11.90;;;;;;5058026;28;20367;-23
2023/04/20 05:49:06;;;;;;;5.05;1.13;;;7.80;1.00;;;;;;5075376;28;20052;-24
2023/04/20 05:51:32;;;;;;;4.47;1.30;;;7.80;1.00;;;;;;5057879;28;20076;-23
2023/04/20 05:54:02;;;;;;;4.85;1.60;;;7.90;1.00;;;;;;5058810;28;20052;-23
2023/04/20 05:56:28;;;;;;;6.80;1.42;;;8.00;1.00;;;;;;5075662;28;20084;-23
2023/04/20 05:58:55;;;;;;;4.57;1.75;;;8.10;1.00;;;;;;5075566;28;20063;-23
2023/04/20 06:01:20;;;;;;;6.97;1.40;;;8.00;1.00;;;;;;5075570;28;20452;-23
2023/04/20 06:03:48;;;;;;;6.35;1.63;;;8.00;1.00;;;;;;5076026;28;20045;-23
2023/04/20 06:06:14;;;;;;;5.13;1.02;;;8.00;1.00;;;;;;5075433;28;20083;-23
2023/04/20 06:08:40;;;;;;;6.50;1.17;;;8.00;1.00;;;;;;5057859;28;20083;-23
2023/04/20 06:11:06;;;;;;;4.00;1.10;;;7.90;1.00;;;;;;5057658;28;20151;-23
2023/04/20 06:13:32;;;;;;;2.50;1.25;;;7.80;1.00;;;;;;5057753;28;20040;-24
2023/04/20 06:15:57;;;;;;;3.13;1.40;;;7.60;1.00;;;;;;5075659;28;20525;-24
2023/04/20 06:18:23;;;;;;;5.05;1.20;;;7.60;1.00;;;;;;5075301;28;20040;-23
2023/04/20 06:20:49;;;;;;;2.55;1.00;;;7.50;33.60;;;;;;5075201;28;20051;-23
2023/04/20 06:23:15;;;;;;;7.95;2.35;;;7.40;99.90;;;;;;5074910;28;20044;-23
2023/04/20 06:25:41;;;;;;;13.13;1.60;;;7.40;99.90;;;;;;5074771;28;20185;-23
2023/04/20 06:28:07;;;;;;;4.57;1.63;;;7.30;99.90;;;;;;5074771;28;20098;-24
2023/04/20 06:30:34;;;;;;;4.43;1.58;;;7.30;99.90;;;;;;5057034;28;20052;-24
2023/04/20 06:33:00;;;;;;;4.60;1.40;;;7.20;1.00;;;;;;5074726;28;20049;-23
2023/04/20 06:35:26;;;;;;;6.88;1.48;;;7.20;1.00;;;;;;5074796;28;20083;-23
2023/04/20 06:37:53;;;;;;;6.00;1.52;;;6.90;1.00;;;;;;5056495;28;20076;-24
2023/04/20 06:40:19;;;;;;;6.85;2.00;;;6.90;97.50;;;;;;5074676;28;20058;-23
2023/04/20 06:42:44;;;;;;;6.95;2.25;;;6.80;99.90;;;;;;5056634;28;20057;-22
2023/04/20 06:45:11;;;;;;;5.90;1.83;;;6.70;99.90;;;;;;5074629;28;20102;-21
2023/04/20 06:47:36;;;;;;;7.45;2.33;;;6.50;99.90;;;;;;5074515;28;20093;-22
2023/04/20 06:50:08;;;;;;;7.38;1.75;;;6.30;99.90;;;;;;5074528;28;20382;-21
2023/04/20 06:52:36;;;;;;;6.03;1.70;;;6.10;89.80;;;;;;5057181;28;20044;-21
2023/04/20 06:55:01;;;;;;;8.00;2.05;;;6.00;99.90;;;;;;5057200;28;20095;-22
2023/04/20 06:57:27;;;;;;;6.93;2.13;;;5.80;99.90;;;;;;5056575;28;20049;-22
2023/04/20 06:59:53;;;;;;;6.35;1.95;;;5.70;1.00;;;;;;5023674;28;20056;-22
2023/04/20 07:02:18;;;;;;;6.47;2.17;;;5.60;29.80;;;;;;5056657;28;20086;-22
2023/04/20 07:04:44;;;;;;;9.57;2.63;;;5.70;99.90;;;;;;5074255;28;20044;-21
2023/04/20 07:07:10;;;;;;;2.78;1.67;;;5.60;99.90;;;;;;5073698;28;20087;-21
2023/04/20 07:09:36;;;;;;;5.68;2.25;;;5.60;99.90;;;;;;5039742;28;20040;-21
2023/04/20 07:12:01;;;;;;;8.23;2.35;;;5.60;1.00;;;;;;5074186;28;20469;-20
2023/04/20 07:14:27;;;;;;;6.85;2.67;;;5.60;1.00;;;;;;5073733;28;20513;-21
2023/04/20 07:16:53;;;;;;;4.50;1.88;;;5.60;1.00;;;;;;5074056;28;20076;-21
2023/04/20 07:19:19;;;;;;;5.80;2.28;;;5.60;14.70;;;;;;5074046;28;20045;-21
2023/04/20 07:21:45;;;;;;;8.27;2.58;;;5.70;1.00;;;;;;5074044;28;20053;-21
2023/04/20 07:24:11;;;;;;;10.90;2.78;;;5.70;1.00;;;;;;5073957;28;20048;-21
2023/04/20 07:26:37;;;;;;;5.85;2.30;;;5.70;60.30;;;;;;5073939;28;20040;-21
2023/04/20 07:29:03;;;;;;;6.93;2.40;;;5.70;22.10;;;;;;5073690;28;20052;-21
2023/04/20 07:31:29;;;;;;;7.88;3.13;;;5.70;52.10;;;;;;5073875;28;20055;-21
2023/04/20 07:33:54;;;;;;;12.10;2.17;;;5.70;66.30;;;;;;5039310;28;20097;-21
2023/04/20 07:36:21;;;;;;;6.43;2.25;;;5.70;63.50;;;;;;5056132;28;20131;-21
2023/04/20 07:38:50;;;;;;;4.47;2.33;;;5.70;15.90;;;;;;5073735;28;20048;-20
2023/04/20 07:41:16;;;;;;;6.70;2.53;;;5.70;45.30;;;;;;5056237;28;20394;-20
2023/04/20 07:43:43;;;;;;;5.40;2.58;;;5.70;62.20;;;;;;5039296;28;20044;-20
2023/04/20 07:46:09;;;;;;;6.22;2.30;;;5.70;99.90;;;;;;5073677;28;20048;-21
2023/04/20 07:48:35;;;;;;;7.22;2.45;;;5.70;91.80;;;;;;5074332;28;20058;-21
2023/04/20 07:51:01;;;;;;;6.68;2.60;;;5.70;99.90;;;;;;5073681;28;20130;-21
2023/04/20 07:53:28;;;;;;;5.88;2.30;;;5.80;99.90;;;;;;5056729;28;20450;-21
2023/04/20 07:55:54;;;;;;;4.00;2.53;;;6.00;99.90;;;;;;5073578;28;20048;-21
2023/04/20 07:58:20;;;;;;;5.63;2.58;;;6.20;99.90;;;;;;5055896;28;20049;-21
2023/04/20 08:00:46;;;;;;;7.15;2.38;;;6.40;99.90;;;;;;5073570;28;20080;-21
2023/04/20 08:03:13;;;;;;;5.82;2.72;;;6.50;99.90;;;;;;5056616;28;20093;-21
2023/04/20 08:05:39;;;;;;;10.38;2.90;;;6.80;99.90;;;;;;5073526;28;20044;-21
2023/04/20 08:08:05;;;;;;;6.60;2.63;;;6.90;99.90;;;;;;5073412;28;20037;-21
2023/04/20 08:10:31;;;;;;;5.43;2.42;;;6.90;97.90;;;;;;5073481;28;20059;-21
2023/04/20 08:12:58;;;;;;;7.90;3.03;;;6.80;59.80;;;;;;5073424;28;20049;-22
2023/04/20 08:15:24;;;;;;;10.45;2.85;;;6.80;58.30;;;;;;5055598;28;20078;-22
2023/04/20 08:17:49;;;;;;;5.97;2.95;;;6.70;27.90;;;;;;5039176;28;20041;-22
2023/04/20 08:20:15;;;;;;;7.18;2.83;;;6.60;1.00;;;;;;5077027;28;20491;-22
2023/04/20 08:22:41;;;;;;;5.25;2.40;;;6.60;17.70;;;;;;5077053;28;20055;-22
2023/04/20 08:25:07;;;;;;;4.20;2.20;;;6.60;1.00;;;;;;5077341;28;20135;-23
2023/04/20 08:27:33;;;;;;;5.45;2.30;;;6.60;1.00;;;;;;5078109;28;20043;-23
2023/04/20 08:29:59;;;;;;;4.15;2.20;;;6.70;1.00;;;;;;5077214;28;20083;-22
2023/04/20 08:32:25;;;;;;;5.63;2.08;;;6.80;1.00;;;;;;5078011;28;20040;-22
2023/04/20 08:34:52;;;;;;;6.57;2.53;;;6.90;1.00;;;;;;5059311;28;20423;-23
2023/04/20 08:37:18;;;;;;;6.47;2.88;;;7.00;1.00;;;;;;5043168;28;20063;-23
2023/04/20 08:39:44;;;;;;;9.07;2.95;;;7.10;99.90;;;;;;5060146;28;20087;-23
2023/04/20 08:42:10;;;;;;;8.10;2.67;;;7.10;1.00;;;;;;5059076;28;20056;-23
2023/04/20 08:44:36;;;;;;;8.15;3.17;;;7.10;99.90;;;;;;5059315;28;20513;-22
2023/04/20 08:47:02;;;;;;;3.08;2.20;;;7.20;99.90;;;;;;5076944;28;20053;-23
2023/04/20 08:49:29;;;;;;;8.32;2.83;;;7.10;99.90;;;;;;5058849;28;20499;-23
2023/04/20 08:51:55;;;;;;;5.45;2.65;;;6.90;99.90;;;;;;5076861;28;20141;-22
2023/04/20 08:54:21;;;;;;;6.40;2.85;;;6.80;99.90;;;;;;5043348;28;20102;-22
2023/04/20 08:56:47;;;;;;;6.10;2.60;;;6.70;99.90;;;;;;5059875;28;20044;-23
2023/04/20 08:59:14;;;;;;;8.98;3.20;;;6.70;99.90;;;;;;5059015;28;20110;-23
2023/04/20 09:01:41;;;;;;;7.68;2.85;;;6.70;99.90;;;;;;5076628;28;20494;-22
2023/04/20 09:04:20;;;;;;;5.53;3.35;;;6.60;1.00;;;;;;5076578;28;20088;-23
2023/04/20 09:06:49;;;;;;;6.22;3.28;;;6.50;1.00;;;;;;5076584;28;20052;-22
2023/04/20 09:09:15;;;;;;;7.40;3.33;;;6.60;1.00;;;;;;5076193;28;20398;-23
2023/04/20 09:11:41;;;;;;;7.00;3.17;;;6.60;1.00;;;;;;5025266;28;20055;-23
2023/04/20 09:14:11;;;;;;;6.88;2.60;;;6.70;1.00;;;;;;5076507;28;20040;-23
2023/04/20 09:16:46;;;;;;;9.65;3.25;;;6.70;1.00;;;;;;5076402;28;20040;-23
2023/04/20 09:19:13;;;;;;;4.53;2.70;;;6.90;1.00;;;;;;5076955;28;20377;-23
2023/04/20 09:21:48;;;;;;;7.57;3.13;;;7.30;15.30;;;;;;5059207;28;20044;-23
2023/04/20 09:24:14;;;;;;;4.32;2.47;;;7.60;1.00;;;;;;5076426;28;20478;-23
2023/04/20 09:26:40;;;;;;;7.97;3.13;;;7.70;99.90;;;;;;5058605;28;20046;-23
2023/04/20 09:29:19;;;;;;;5.75;3.17;;;7.80;99.90;;;;;;5041097;28;20052;-23
2023/04/20 09:31:46;;;;;;;5.10;2.78;;;8.00;99.90;;;;;;5076138;28;20512;-23
2023/04/20 09:34:12;;;;;;;7.40;3.08;;;7.90;99.90;;;;;;5042710;28;20102;-23
2023/04/20 09:36:41;;;;;;;6.53;3.13;;;7.90;99.90;;;;;;5076029;28;20510;-24
2023/04/20 09:39:11;;;;;;;8.98;3.45;;;7.90;99.90;;;;;;5076263;28;20045;-24
2023/04/20 09:41:39;;;;;;;4.50;3.00;;;8.00;99.90;;;;;;5076514;28;20056;-23
2023/04/20 09:44:06;;;;;;;5.32;3.33;;;8.10;99.90;;;;;;5058038;28;20098;-24
2023/04/20 09:46:35;;;;;;;6.75;3.00;;;8.30;99.90;;;;;;5041593;28;20061;-24
2023/04/20 09:49:06;;;;;;;8.43;3.20;;;8.60;99.90;;;;;;5076280;28;20080;-23
2023/04/20 09:51:34;;;;;;;6.75;3.22;;;8.60;60.40;;;;;;5075723;28;20181;-24
2023/04/20 09:54:02;;;;;;;4.90;3.22;;;8.60;1.00;;;;;;5076200;28;20051;-24
2023/04/20 09:56:29;;;;;;;9.93;3.17;;;8.80;24.50;;;;;;5075680;28;20138;-24
2023/04/20 09:58:55;;;;;;;5.22;3.13;;;8.90;1.00;;;;;;5057950;28;20058;-24
2023/04/20 10:01:22;;;;;;;6.05;2.80;;;9.10;1.00;;;;;;5041101;28;20518;-24
2023/04/20 10:03:50;;;;;;;6.28;3.33;;;9.30;99.90;;;;;;5076140;28;20517;-24
2023/04/20 10:06:23;;;;;;;5.32;2.60;;;9.50;1.00;;;;;;5058108;28;20053;-24
2023/04/20 10:08:50;;;;;;;7.60;3.50;;;9.40;99.90;;;;;;5055021;28;20036;-24
2023/04/20 10:11:25;;;;;;;8.65;3.78;;;9.20;99.90;;;;;;5072750;28;20049;-23
2023/04/20 10:13:51;;;;;;;9.27;4.22;;;9.10;99.90;;;;;;5075334;28;20449;-24
2023/04/20 10:16:18;;;;;;;5.30;2.75;;;9.00;99.90;;;;;;5035012;28;20053;-24
2023/04/20 10:18:55;;;;;;;5.85;2.65;;;9.20;99.90;;;;;;5055214;28;20033;-24
2023/04/20 10:21:21;;;;;;;7.93;3.33;;;9.40;99.90;;;;;;5070332;28;20058;-24
2023/04/20 10:23:49;;;;;;;6.78;3.83;;;9.50;99.90;;;;;;5074427;28;20071;-24
2023/04/20 10:26:15;;;;;;;5.78;3.03;;;9.70;99.90;;;;;;5075014;28;20049;-24
2023/04/20 10:28:43;;;;;;;6.80;3.33;;;9.80;99.90;;;;;;5074039;28;20098;-24
2023/04/20 10:31:12;;;;;;;9.48;3.60;;;9.60;57.40;;;;;;5056609;28;20462;-24
2023/04/20 10:33:56;;;;;;;7.53;3.70;;;9.40;99.90;;;;;;5024351;28;20052;-24
2023/04/20 10:36:30;;;;;;;7.35;3.90;;;9.30;99.90;;;;;;5075347;28;20049;-24
2023/04/20 10:38:57;;;;;;;6.53;3.45;;;9.20;99.90;;;;;;5074135;28;20048;-24
2023/04/20 10:41:23;;;;;;;7.65;3.63;;;9.00;99.90;;;;;;5071984;28;20127;-24
2023/04/20 10:43:49;;;;;;;7.03;3.55;;;9.00;99.90;;;;;;5056325;28;20127;-24
2023/04/20 10:46:24;;;;;;;7.50;3.83;;;8.90;99.90;;;;;;5074572;28;20052;-24
2023/04/20 10:48:57;;;;;;;11.85;4.13;;;8.80;99.90;;;;;;5074374;28;20127;-24
2023/04/20 10:51:24;;;;;;;8.18;4.10;;;8.70;99.90;;;;;;5073510;28;20120;-24
2023/04/20 10:54:04;;;;;;;8.40;4.15;;;8.60;99.90;;;;;;5056674;28;20089;-24
2023/04/20 10:56:56;;;;;;;7.97;3.90;;;8.60;99.90;;;;;;5041195;28;20613;-24
2023/04/20 10:59:23;;;;;;;8.57;4.03;;;8.40;1.00;;;;;;5068836;28;20491;-24
2023/04/20 11:01:50;;;;;;;6.95;3.97;;;8.30;1.00;;;;;;5073957;28;20102;-24
2023/04/20 11:04:17;;;;;;;6.20;3.63;;;8.30;1.00;;;;;;5073860;28;20456;-24
2023/04/20 11:06:45;;;;;;;6.93;3.83;;;8.20;3.40;;;;;;5074170;28;20052;-24
2023/04/20 11:09:27;;;;;;;9.25;3.42;;;8.30;36.80;;;;;;5055851;28;20037;-24
2023/04/20 11:12:13;;;;;;;9.50;4.38;;;8.20;90.90;;;;;;5059667;28;20106;-24
2023/04/20 11:14:54;;;;;;;8.68;4.28;;;8.30;99.90;;;;;;5056409;28;20556;-24
2023/04/20 11:17:33;;;;;;;7.25;3.85;;;8.60;99.90;;;;;;5071873;28;20169;-23
2023/04/20 11:20:13;;;;;;;8.63;3.88;;;9.10;99.90;;;;;;5054883;28;20049;-24
2023/04/20 11:22:40;;;;;;;7.20;4.00;;;9.50;1.00;;;;;;5062964;28;20056;-24
2023/04/20 11:25:08;;;;;;;5.70;3.25;;;9.60;1.00;;;;;;5074373;28;20040;-24
2023/04/20 11:27:34;;;;;;;7.93;3.45;;;9.60;99.90;;;;;;5073372;28;20050;-24
2023/04/20 11:30:04;;;;;;;7.20;4.22;;;9.30;99.90;;;;;;5055715;28;20044;-24
2023/04/20 11:32:34;;;;;;;8.75;4.43;;;9.10;99.90;;;;;;5073032;28;20083;-24
2023/04/20 11:35:06;;;;;;;9.10;3.90;;;8.90;99.90;;;;;;5073823;28;20051;-24
2023/04/20 11:37:32;;;;;;;10.50;4.72;;;8.90;1.00;;;;;;5073348;28;20048;-24
2023/04/20 11:39:59;;;;;;;7.63;3.47;;;9.00;1.00;;;;;;5055606;28;20036;-24
2023/04/20 11:42:25;;;;;;;8.35;3.80;;;9.10;1.00;;;;;;5072558;28;20057;-24
2023/04/20 11:44:51;;;;;;;9.55;3.97;;;9.20;1.00;;;;;;5073598;28;20055;-24
2023/04/20 11:47:17;;;;;;;7.80;4.35;;;9.20;99.90;;;;;;5072905;28;20044;-24
2023/04/20 11:49:42;;;;;;;7.90;4.30;;;9.10;1.00;;;;;;5073167;28;20048;-24
2023/04/20 11:52:08;;;;;;;8.52;4.22;;;9.30;1.00;;;;;;5054764;28;20098;-23
2023/04/20 11:54:34;;;;;;;8.60;4.32;;;9.50;1.00;;;;;;5072274;28;20406;-24
2023/04/20 11:57:00;;;;;;;7.25;4.20;;;9.70;99.90;;;;;;5071476;28;20398;-24
2023/04/20 11:59:26;;;;;;;6.75;3.70;;;9.80;99.90;;;;;;5038894;28;20505;-24
2023/04/20 12:01:51;;;;;;;7.30;3.67;;;9.90;99.90;;;;;;5073683;28;20091;-24
2023/04/20 12:04:17;;;;;;;8.02;4.70;;;9.80;99.90;;;;;;5072570;28;20402;-24
2023/04/20 12:06:43;;;;;;;7.82;4.25;;;9.80;99.90;;;;;;5073483;28;20418;-24
2023/04/20 12:09:09;;;;;;;8.60;5.00;;;9.70;99.90;;;;;;5072708;28;20072;-24
2023/04/20 12:11:35;;;;;;;10.27;4.88;;;9.60;99.90;;;;;;5055300;28;20521;-24
2023/04/20 12:14:00;;;;;;;8.77;4.75;;;9.60;99.90;;;;;;5072360;28;20095;-24
2023/04/20 12:16:26;;;;;;;7.05;4.80;;;9.80;99.90;;;;;;5054791;28;20049;-24
2023/04/20 12:18:52;;;;;;;10.38;4.90;;;10.20;99.90;;;;;;5056607;28;20417;-25
2023/04/20 12:21:18;;;;;;;7.15;4.63;;;10.70;99.90;;;;;;5073384;28;20086;-25
2023/04/20 12:23:44;;;;;;;9.13;4.47;;;11.80;99.90;;;;;;5054132;28;20048;-25
2023/04/20 12:26:09;;;;;;;9.98;5.05;;;13.60;92.20;;;;;;5055636;28;20103;-25
2023/04/20 12:28:35;;;;;;;8.57;4.35;;;13.80;99.90;;;;;;5073689;28;20036;-24
2023/04/20 12:31:01;;;;;;;7.82;4.10;;;14.00;99.90;;;;;;5073883;28;20563;-24
2023/04/20 12:33:27;;;;;;;8.43;4.57;;;13.40;99.90;;;;;;5072275;28;20045;-24
2023/04/20 12:35:52;;;;;;;8.88;5.35;;;12.80;99.90;;;;;;5055908;28;20044;-24
2023/04/20 12:38:18;;;;;;;8.90;5.50;;;12.30;28.90;;;;;;5054614;28;20082;-24
2023/04/20 12:40:44;;;;;;;10.68;5.38;;;12.30;1.00;;;;;;5073443;28;20044;-24
2023/04/20 12:43:10;;;;;;;7.97;5.20;;;12.30;99.90;;;;;;5072244;28;20056;-24
2023/04/20 12:45:35;;;;;;;9.45;5.47;;;12.20;99.90;;;;;;5073434;28;20036;-24
2023/04/20 12:48:01;;;;;;;7.30;5.15;;;12.30;1.00;;;;;;5073569;28;20045;-24
2023/04/20 12:50:27;;;;;;;6.65;5.50;;;12.10;99.90;;;;;;5072775;28;20044;-23
2023/04/20 12:52:55;;;;;;;7.05;5.13;;;11.80;73.50;;;;;;5054380;28;20508;-24
2023/04/20 12:55:22;;;;;;;6.88;4.88;;;11.50;99.90;;;;;;5054900;28;20056;-23
2023/04/20 12:57:47;;;;;;;7.97;4.65;;;11.30;99.90;;;;;;5073058;28;20044;-24